Time;durP1;ratioP1;P1;durP2;ratioP2;P2;SDS_P1;SDS_P2;PMS_P1;PMS_P2;Temp;Humidity;BMP_temperature;BMP_pressure;BME280_temperature;BME280_humidity;BME280_pressure;Samples;Min_cycle;Max_cycle;Signal;HPM_P1;HPM_P2
2023/05/18 00:00:01;;;;;;;5.47;1.60;;;8.20;99.90;;;;;;5086577;28;20043;-86
2023/05/18 00:02:28;;;;;;;12.15;2.22;;;8.20;99.90;;;;;;5060111;28;20037;-86
2023/05/18 00:04:54;;;;;;;6.20;1.70;;;8.20;99.90;;;;;;5076409;28;20043;-86
2023/05/18 00:07:21;;;;;;;6.30;1.63;;;8.10;99.90;;;;;;5092452;28;20044;-86
2023/05/18 00:09:48;;;;;;;8.27;1.70;;;8.10;99.90;;;;;;5059689;28;20045;-86
2023/05/18 00:12:14;;;;;;;6.22;1.60;;;8.10;99.90;;;;;;5058948;28;20040;-86
2023/05/18 00:14:41;;;;;;;10.60;1.60;;;8.10;99.90;;;;;;5075795;28;20046;-86
2023/05/18 00:17:08;;;;;;;11.90;1.90;;;8.10;99.90;;;;;;5076073;28;20040;-86
2023/05/18 00:19:35;;;;;;;9.90;2.28;;;8.00;99.90;;;;;;5054341;28;20485;-86
2023/05/18 00:22:02;;;;;;;8.30;1.60;;;8.00;99.90;;;;;;5056114;28;20154;-86
2023/05/18 00:24:29;;;;;;;9.68;2.30;;;8.00;99.90;;;;;;5039594;28;20052;-85
2023/05/18 00:26:56;;;;;;;5.90;1.45;;;8.00;99.90;;;;;;5039713;28;20123;-86
2023/05/18 00:29:22;;;;;;;5.97;1.58;;;8.00;99.90;;;;;;5056438;28;20131;-86
2023/05/18 00:31:49;;;;;;;7.57;1.70;;;7.90;99.90;;;;;;5059170;28;20451;-86
2023/05/18 00:34:16;;;;;;;5.63;2.30;;;7.90;99.90;;;;;;5075761;28;20032;-86
2023/05/18 00:36:42;;;;;;;5.68;1.73;;;7.90;99.90;;;;;;5075263;28;20032;-86
2023/05/18 00:39:10;;;;;;;3.72;1.52;;;7.90;99.90;;;;;;5092227;28;20123;-86
2023/05/18 00:41:37;;;;;;;5.18;1.63;;;7.80;99.90;;;;;;5059869;28;20539;-86
2023/05/18 00:44:04;;;;;;;6.00;1.80;;;7.80;99.90;;;;;;5039918;28;20055;-86
2023/05/18 00:46:31;;;;;;;10.25;2.00;;;7.80;99.90;;;;;;5072535;28;20048;-86
2023/05/18 00:49:00;;;;;;;9.65;1.92;;;7.80;99.90;;;;;;5071835;28;20113;-86
2023/05/18 00:51:28;;;;;;;5.55;1.50;;;7.90;99.90;;;;;;5082946;28;20080;-85
2023/05/18 00:53:56;;;;;;;7.15;1.58;;;7.80;99.90;;;;;;5092131;28;20040;-86
2023/05/18 00:56:23;;;;;;;4.93;1.50;;;7.80;99.90;;;;;;5074974;28;20081;-85
2023/05/18 00:58:54;;;;;;;5.70;1.90;;;7.80;99.90;;;;;;5092066;28;20051;-86
2023/05/18 01:01:27;;;;;;;5.68;1.67;;;7.80;99.90;;;;;;5058763;28;20050;-86
2023/05/18 01:03:55;;;;;;;5.97;1.60;;;7.90;99.90;;;;;;5091731;28;20050;-86
2023/05/18 01:06:25;;;;;;;6.10;1.50;;;7.80;99.90;;;;;;5090439;28;20063;-85
2023/05/18 01:08:55;;;;;;;7.10;1.45;;;7.80;99.90;;;;;;5075277;28;20041;-86
2023/05/18 01:11:38;;;;;;;3.45;1.40;;;7.80;99.90;;;;;;5072445;28;20079;-84
2023/05/18 01:14:44;;;;;;;3.83;1.40;;;7.90;99.90;;;;;;5071559;28;20048;-86
2023/05/18 01:17:28;;;;;;;6.05;1.77;;;7.80;99.90;;;;;;5070803;28;20107;-86
2023/05/18 01:20:13;;;;;;;6.93;1.63;;;7.80;99.90;;;;;;5071087;28;20421;-86
2023/05/18 01:23:20;;;;;;;7.80;1.97;;;7.80;99.90;;;;;;5081080;28;20042;-86
2023/05/18 01:25:52;;;;;;;5.05;2.00;;;7.80;99.90;;;;;;5090869;28;20286;-86
2023/05/18 01:28:25;;;;;;;7.28;1.60;;;7.80;99.90;;;;;;5091351;28;20052;-86
2023/05/18 01:30:53;;;;;;;4.78;1.70;;;7.80;99.90;;;;;;5090616;28;20527;-86
2023/05/18 01:33:20;;;;;;;4.85;1.65;;;7.80;99.90;;;;;;5080823;28;20037;-86
2023/05/18 01:35:47;;;;;;;4.43;1.50;;;7.80;99.90;;;;;;5054738;28;20048;-85
2023/05/18 01:38:19;;;;;;;3.35;1.40;;;7.70;99.90;;;;;;5038564;28;20040;-86
2023/05/18 01:40:56;;;;;;;7.32;1.67;;;7.80;99.90;;;;;;5070990;28;20051;-86
2023/05/18 01:43:29;;;;;;;6.80;1.75;;;7.80;99.90;;;;;;5071546;28;20072;-86
2023/05/18 01:46:04;;;;;;;7.82;1.63;;;7.80;99.90;;;;;;5056475;28;20072;-86
2023/05/18 01:48:33;;;;;;;7.30;1.55;;;7.70;99.90;;;;;;5071145;28;20088;-85
2023/05/18 01:51:01;;;;;;;5.07;1.50;;;7.80;99.90;;;;;;5070661;28;20045;-86
2023/05/18 01:53:38;;;;;;;7.35;1.90;;;7.70;99.90;;;;;;5045294;28;20497;-85
2023/05/18 01:56:07;;;;;;;6.55;1.52;;;7.80;99.90;;;;;;5101479;28;20123;-86
2023/05/18 01:58:36;;;;;;;7.20;1.80;;;7.70;99.90;;;;;;5073982;28;20106;-85
2023/05/18 02:01:04;;;;;;;6.47;1.70;;;7.70;99.90;;;;;;5091098;28;20113;-86
2023/05/18 02:03:32;;;;;;;4.80;1.55;;;7.80;99.90;;;;;;5083351;28;20056;-85
2023/05/18 02:05:58;;;;;;;5.85;2.05;;;7.70;99.90;;;;;;5070828;28;20081;-86
2023/05/18 02:08:25;;;;;;;4.20;1.63;;;7.80;99.90;;;;;;5054601;28;20126;-86
2023/05/18 02:10:52;;;;;;;6.03;1.30;;;7.70;99.90;;;;;;5037558;28;20417;-86
2023/05/18 02:13:19;;;;;;;6.03;1.60;;;7.70;99.90;;;;;;5054072;28;20401;-86
2023/05/18 02:15:46;;;;;;;7.15;1.70;;;7.80;99.90;;;;;;5053746;28;20076;-85
2023/05/18 02:18:12;;;;;;;5.68;1.88;;;7.80;99.90;;;;;;5053847;28;20485;-86
2023/05/18 02:20:39;;;;;;;7.30;1.65;;;7.80;99.90;;;;;;5053840;28;20045;-86
2023/05/18 02:23:06;;;;;;;6.32;1.60;;;7.80;99.90;;;;;;5037022;28;20409;-86
2023/05/18 02:25:32;;;;;;;4.80;1.75;;;7.80;99.90;;;;;;5053462;28;20044;-85
2023/05/18 02:27:59;;;;;;;8.52;1.95;;;7.80;99.90;;;;;;5056883;28;20508;-86
2023/05/18 02:30:26;;;;;;;7.63;2.63;;;7.80;99.90;;;;;;5057302;28;20043;-86
2023/05/18 02:32:52;;;;;;;5.15;1.55;;;7.80;99.90;;;;;;5073895;28;20043;-86
2023/05/18 02:35:19;;;;;;;5.18;1.83;;;7.80;99.90;;;;;;5045414;28;20039;-85
2023/05/18 02:37:48;;;;;;;6.45;1.77;;;7.80;99.90;;;;;;5053267;28;20049;-86
2023/05/18 02:40:16;;;;;;;6.18;1.80;;;7.80;99.90;;;;;;5053520;28;20508;-86
2023/05/18 02:42:43;;;;;;;3.58;1.88;;;7.70;99.90;;;;;;5053795;28;20033;-86
2023/05/18 02:45:10;;;;;;;8.85;1.90;;;7.70;99.90;;;;;;5038024;28;20400;-86
2023/05/18 02:47:37;;;;;;;22.88;3.38;;;7.70;99.90;;;;;;5053443;28;20039;-85
2023/05/18 02:50:04;;;;;;;5.40;1.90;;;7.70;99.90;;;;;;5054108;28;20059;-86
2023/05/18 02:52:32;;;;;;;7.03;1.80;;;7.70;99.90;;;;;;5053812;28;20041;-86
2023/05/18 02:54:59;;;;;;;7.13;1.80;;;7.70;99.90;;;;;;5041596;28;20039;-86
2023/05/18 02:57:26;;;;;;;10.23;2.15;;;7.70;99.90;;;;;;5090006;28;20467;-86
2023/05/18 02:59:53;;;;;;;4.85;1.60;;;7.60;99.90;;;;;;5073909;28;20040;-86
2023/05/18 03:02:22;;;;;;;7.15;1.70;;;7.70;99.90;;;;;;5057333;28;20097;-86
2023/05/18 03:04:56;;;;;;;5.47;1.33;;;7.60;99.90;;;;;;5057691;28;20074;-86
2023/05/18 03:07:26;;;;;;;8.60;1.77;;;7.70;99.90;;;;;;5075790;28;20048;-86
2023/05/18 03:09:53;;;;;;;8.82;1.67;;;7.70;99.90;;;;;;5090055;28;20049;-86
2023/05/18 03:12:19;;;;;;;8.63;1.80;;;7.70;99.90;;;;;;5090464;28;20500;-85
2023/05/18 03:14:46;;;;;;;8.30;1.70;;;7.70;99.90;;;;;;5056867;28;20093;-85
2023/05/18 03:17:13;;;;;;;8.38;1.92;;;7.70;99.90;;;;;;5089833;28;20123;-86
2023/05/18 03:19:40;;;;;;;8.20;1.70;;;7.80;99.90;;;;;;5057155;28;20043;-84
2023/05/18 03:22:07;;;;;;;7.50;1.73;;;7.70;99.90;;;;;;5056523;28;20041;-86
2023/05/18 03:24:39;;;;;;;5.35;1.55;;;7.70;99.90;;;;;;5073377;28;20048;-85
2023/05/18 03:27:06;;;;;;;7.43;1.85;;;7.70;99.90;;;;;;5073663;28;20055;-86
2023/05/18 03:29:36;;;;;;;7.13;1.90;;;7.70;99.90;;;;;;5073141;28;20493;-86
2023/05/18 03:32:03;;;;;;;6.50;1.58;;;7.70;99.90;;;;;;5057456;28;20517;-86
2023/05/18 03:34:29;;;;;;;3.80;1.33;;;7.70;99.90;;;;;;5091092;28;20039;-86
2023/05/18 03:36:56;;;;;;;6.30;1.52;;;7.80;99.90;;;;;;5076389;28;20033;-86
2023/05/18 03:39:23;;;;;;;7.05;1.90;;;7.70;99.90;;;;;;5076825;28;20086;-86
2023/05/18 03:41:50;;;;;;;6.05;1.67;;;7.70;99.90;;;;;;5060470;28;20036;-86
2023/05/18 03:44:17;;;;;;;6.18;1.60;;;7.80;99.90;;;;;;5076994;28;20071;-86
2023/05/18 03:46:44;;;;;;;8.20;1.70;;;7.80;99.90;;;;;;5060006;28;20084;-85
2023/05/18 03:49:10;;;;;;;9.48;1.65;;;7.80;99.90;;;;;;5076561;28;20083;-86
2023/05/18 03:51:37;;;;;;;3.75;1.30;;;7.80;99.90;;;;;;5060021;28;20052;-86
2023/05/18 03:54:04;;;;;;;7.60;1.70;;;7.80;99.90;;;;;;5059668;28;20484;-86
2023/05/18 03:56:31;;;;;;;6.38;1.42;;;7.80;99.90;;;;;;5076773;28;20128;-86
2023/05/18 03:58:58;;;;;;;5.35;1.70;;;7.80;99.90;;;;;;5076686;28;20507;-86
2023/05/18 04:01:24;;;;;;;6.65;1.77;;;7.80;99.90;;;;;;5060213;28;20048;-86
2023/05/18 04:03:55;;;;;;;8.38;1.70;;;7.80;99.90;;;;;;5076059;28;20431;-86
2023/05/18 04:06:22;;;;;;;8.52;1.80;;;7.80;99.90;;;;;;5076298;28;20040;-86
2023/05/18 04:08:49;;;;;;;4.65;1.70;;;7.80;99.90;;;;;;5047673;28;20045;-86
2023/05/18 04:11:15;;;;;;;6.00;1.80;;;7.80;99.90;;;;;;5056278;28;20124;-86
2023/05/18 04:13:42;;;;;;;7.85;2.00;;;7.80;99.90;;;;;;5039958;28;20072;-86
2023/05/18 04:16:12;;;;;;;6.93;1.42;;;7.80;99.90;;;;;;5072659;28;20041;-86
2023/05/18 04:18:40;;;;;;;7.20;1.70;;;7.90;99.90;;;;;;5062682;28;20032;-86
2023/05/18 04:21:06;;;;;;;4.65;1.40;;;7.90;99.90;;;;;;5092391;28;20409;-86
2023/05/18 04:23:37;;;;;;;8.23;1.88;;;7.90;99.90;;;;;;5076351;28;20052;-86
2023/05/18 04:26:05;;;;;;;2.92;1.30;;;8.00;99.90;;;;;;5076609;28;20036;-86
2023/05/18 04:28:32;;;;;;;7.50;1.88;;;8.00;99.90;;;;;;5092634;28;20043;-86
2023/05/18 04:31:00;;;;;;;5.15;1.63;;;8.00;99.90;;;;;;5092810;28;20036;-86
2023/05/18 04:33:28;;;;;;;4.18;1.63;;;8.00;99.90;;;;;;5093155;28;20503;-86
2023/05/18 04:35:57;;;;;;;7.03;1.50;;;8.00;99.90;;;;;;5109424;28;20123;-86
2023/05/18 04:38:24;;;;;;;6.60;1.77;;;8.10;99.90;;;;;;5076568;28;20050;-86
2023/05/18 04:40:52;;;;;;;10.43;1.80;;;8.10;99.90;;;;;;5057316;28;20076;-85
2023/05/18 04:43:20;;;;;;;5.18;1.20;;;8.10;99.90;;;;;;5040172;28;20404;-86
2023/05/18 04:45:49;;;;;;;4.45;1.50;;;8.20;99.90;;;;;;5055296;28;20044;-86
2023/05/18 04:48:19;;;;;;;5.07;1.58;;;8.20;99.90;;;;;;5039795;28;20087;-86
2023/05/18 04:50:46;;;;;;;8.18;1.77;;;8.20;99.90;;;;;;5056225;28;20056;-86
2023/05/18 04:53:12;;;;;;;7.07;1.55;;;8.20;99.90;;;;;;5055442;28;20136;-86
2023/05/18 04:55:41;;;;;;;6.35;1.67;;;8.30;99.90;;;;;;5088857;28;20045;-86
2023/05/18 04:58:09;;;;;;;8.02;1.50;;;8.30;99.90;;;;;;5039918;28;20045;-86
2023/05/18 05:00:36;;;;;;;5.60;1.58;;;8.40;99.90;;;;;;5071856;28;20123;-86
2023/05/18 05:03:03;;;;;;;4.30;1.45;;;8.40;99.90;;;;;;5038901;28;20045;-86
2023/05/18 05:05:30;;;;;;;10.18;1.80;;;8.40;99.90;;;;;;5055319;28;20175;-87
2023/05/18 05:07:57;;;;;;;7.35;2.00;;;8.50;99.90;;;;;;5059979;28;20492;-86
2023/05/18 05:10:24;;;;;;;9.65;1.70;;;8.60;99.90;;;;;;5075018;28;20157;-86
2023/05/18 05:12:51;;;;;;;7.88;2.20;;;8.60;99.90;;;;;;5091662;28;20044;-86
2023/05/18 05:15:18;;;;;;;7.95;2.05;;;8.60;99.90;;;;;;5074938;28;20047;-86
2023/05/18 05:17:48;;;;;;;7.68;2.25;;;8.60;99.90;;;;;;5075592;28;20132;-86
2023/05/18 05:20:15;;;;;;;6.15;1.77;;;8.70;99.90;;;;;;5074733;28;20044;-86
2023/05/18 05:22:42;;;;;;;6.57;2.03;;;8.70;99.90;;;;;;5075231;28;20041;-86
2023/05/18 05:25:09;;;;;;;10.35;2.05;;;8.70;99.90;;;;;;5074385;28;20123;-86
2023/05/18 05:27:36;;;;;;;7.20;1.98;;;8.70;99.90;;;;;;5075393;28;20047;-86
2023/05/18 05:30:03;;;;;;;7.40;1.83;;;8.80;99.90;;;;;;5057968;28;20128;-85
2023/05/18 05:32:30;;;;;;;7.80;1.50;;;8.80;99.90;;;;;;5054973;28;20045;-86
2023/05/18 05:34:57;;;;;;;6.05;1.65;;;8.90;99.90;;;;;;5054297;28;20033;-86
2023/05/18 05:37:23;;;;;;;8.48;1.95;;;8.90;99.90;;;;;;5038112;28;20068;-86
2023/05/18 05:39:50;;;;;;;3.08;1.30;;;9.00;99.90;;;;;;5066377;28;20036;-86
2023/05/18 05:42:17;;;;;;;5.07;1.48;;;9.00;99.90;;;;;;5058266;28;20037;-86
2023/05/18 05:44:43;;;;;;;6.03;1.55;;;9.00;99.90;;;;;;5071499;28;20095;-86
2023/05/18 05:47:10;;;;;;;4.03;1.35;;;9.10;99.90;;;;;;5087669;28;20080;-86
2023/05/18 05:49:37;;;;;;;8.30;2.17;;;9.10;99.90;;;;;;5102344;28;20120;-86
2023/05/18 05:52:04;;;;;;;6.25;1.55;;;9.20;99.90;;;;;;5038133;28;20045;-86
2023/05/18 05:54:30;;;;;;;9.05;1.70;;;9.20;99.90;;;;;;5038424;28;20040;-86
2023/05/18 05:56:57;;;;;;;6.07;1.60;;;9.30;99.90;;;;;;5038491;28;20044;-88
2023/05/18 05:59:24;;;;;;;5.32;1.58;;;9.30;99.90;;;;;;5057042;28;20409;-88
2023/05/18 06:01:51;;;;;;;4.63;1.52;;;9.30;99.90;;;;;;5075242;28;20056;-88
2023/05/18 06:04:18;;;;;;;7.43;1.40;;;9.30;99.90;;;;;;5091582;28;20040;-88
2023/05/18 06:06:46;;;;;;;9.32;1.88;;;9.40;99.90;;;;;;5075051;28;20091;-88
2023/05/18 06:09:13;;;;;;;6.60;1.67;;;9.40;99.90;;;;;;5091214;28;20041;-88
2023/05/18 06:11:41;;;;;;;6.32;2.00;;;9.40;99.90;;;;;;5087314;28;20037;-87
2023/05/18 06:14:08;;;;;;;6.18;1.55;;;9.50;99.90;;;;;;5050364;28;20091;-88
2023/05/18 06:16:34;;;;;;;6.43;1.50;;;9.50;99.90;;;;;;5037886;28;20041;-88
2023/05/18 06:19:01;;;;;;;8.93;1.80;;;9.60;99.90;;;;;;5068282;28;20120;-88
2023/05/18 06:21:28;;;;;;;5.85;1.67;;;9.60;99.90;;;;;;5070592;28;20094;-86
2023/05/18 06:23:55;;;;;;;4.47;1.60;;;9.70;99.90;;;;;;5073991;28;20036;-88
2023/05/18 06:26:22;;;;;;;7.30;1.80;;;9.70;99.90;;;;;;5090614;28;20044;-88
2023/05/18 06:28:48;;;;;;;8.20;1.50;;;9.80;99.90;;;;;;5107633;28;20040;-88
2023/05/18 06:31:17;;;;;;;4.60;1.50;;;9.80;99.90;;;;;;5086701;28;20091;-88
2023/05/18 06:33:44;;;;;;;6.65;1.80;;;9.80;99.90;;;;;;5070783;28;20081;-85
2023/05/18 06:36:11;;;;;;;4.90;1.70;;;9.90;99.90;;;;;;5074805;28;20075;-88
2023/05/18 06:38:37;;;;;;;6.18;1.50;;;9.90;99.90;;;;;;5054937;28;20056;-88
2023/05/18 06:41:04;;;;;;;6.35;1.80;;;9.90;99.90;;;;;;5073251;28;20087;-88
2023/05/18 06:43:31;;;;;;;9.48;1.73;;;9.90;99.90;;;;;;5074428;28;20446;-87
2023/05/18 06:45:57;;;;;;;9.98;1.60;;;10.00;99.90;;;;;;5091032;28;20075;-88
2023/05/18 06:48:26;;;;;;;11.43;2.00;;;10.00;99.90;;;;;;5090943;28;20127;-88
2023/05/18 06:50:53;;;;;;;6.50;1.85;;;10.00;99.90;;;;;;5108269;28;20044;-88
2023/05/18 06:53:22;;;;;;;10.70;2.45;;;10.00;99.90;;;;;;5087668;28;20079;-87
2023/05/18 06:55:48;;;;;;;6.10;1.75;;;10.00;99.90;;;;;;5055139;28;20044;-87
2023/05/18 06:58:15;;;;;;;8.68;1.65;;;10.00;99.90;;;;;;5078658;28;20044;-87
2023/05/18 07:00:42;;;;;;;9.95;2.28;;;10.00;99.90;;;;;;5060756;28;20041;-88
2023/05/18 07:03:09;;;;;;;7.80;1.83;;;10.00;99.90;;;;;;5054139;28;20049;-88
2023/05/18 07:05:36;;;;;;;6.25;1.60;;;10.00;99.90;;;;;;5070469;28;20073;-88
2023/05/18 07:08:04;;;;;;;9.55;2.30;;;10.10;99.90;;;;;;5066181;28;20742;-87
2023/05/18 07:10:31;;;;;;;4.07;1.58;;;10.10;99.90;;;;;;5094349;28;20049;-88
2023/05/18 07:12:57;;;;;;;7.68;1.90;;;10.20;99.90;;;;;;5078559;28;20123;-87
2023/05/18 07:15:25;;;;;;;8.38;1.60;;;10.20;99.90;;;;;;5077171;28;20040;-88
2023/05/18 07:17:52;;;;;;;3.85;1.30;;;10.20;99.90;;;;;;5078126;28;20516;-87
2023/05/18 07:20:18;;;;;;;7.68;1.85;;;10.30;99.90;;;;;;5078375;28;20037;-88
2023/05/18 07:22:45;;;;;;;6.57;1.77;;;10.40;99.90;;;;;;5058209;28;20032;-90
2023/05/18 07:25:18;;;;;;;5.68;1.60;;;10.50;99.90;;;;;;5059863;28;20397;-89
2023/05/18 07:27:45;;;;;;;6.10;1.58;;;10.50;99.90;;;;;;5041788;28;20044;-89
2023/05/18 07:30:11;;;;;;;4.60;1.40;;;10.60;99.90;;;;;;5058090;28;20045;-87
2023/05/18 07:32:38;;;;;;;6.88;1.90;;;10.70;99.90;;;;;;5041015;28;20081;-87
2023/05/18 07:35:05;;;;;;;6.47;1.50;;;10.80;99.90;;;;;;5057423;28;20037;-87
2023/05/18 07:37:32;;;;;;;7.55;2.03;;;10.90;99.90;;;;;;5073771;28;20447;-86
2023/05/18 07:39:58;;;;;;;7.65;1.80;;;11.10;99.90;;;;;;5041219;28;20103;-87
2023/05/18 07:42:25;;;;;;;6.32;1.65;;;11.10;99.90;;;;;;5040918;28;20053;-86
2023/05/18 07:44:52;;;;;;;5.53;1.60;;;11.10;99.90;;;;;;5052649;28;20095;-87
2023/05/18 07:47:20;;;;;;;7.32;1.83;;;11.30;99.90;;;;;;5056544;28;20041;-86
2023/05/18 07:49:47;;;;;;;6.70;1.70;;;11.40;99.90;;;;;;5040538;28;20045;-86
2023/05/18 07:52:14;;;;;;;4.00;1.67;;;11.40;99.90;;;;;;5077225;28;20094;-86
2023/05/18 07:54:40;;;;;;;6.55;1.83;;;11.50;99.90;;;;;;5076125;28;20040;-85
2023/05/18 07:57:07;;;;;;;4.85;1.40;;;11.50;99.90;;;;;;5076611;28;20501;-85
2023/05/18 07:59:34;;;;;;;4.05;1.52;;;11.50;99.90;;;;;;5065475;28;20037;-86
2023/05/18 08:02:01;;;;;;;7.32;1.58;;;11.60;99.90;;;;;;5058915;28;20086;-86
2023/05/18 08:04:27;;;;;;;5.40;1.90;;;11.80;99.90;;;;;;5039463;28;20405;-86
2023/05/18 08:06:58;;;;;;;7.28;1.63;;;11.90;99.90;;;;;;5040125;28;20043;-86
2023/05/18 08:09:28;;;;;;;5.85;1.55;;;12.00;99.90;;;;;;5040220;28;20032;-86
2023/05/18 08:11:56;;;;;;;6.65;1.73;;;12.20;99.90;;;;;;5047675;28;20708;-85
2023/05/18 08:14:23;;;;;;;6.95;1.48;;;12.30;99.90;;;;;;5055467;28;20068;-85
2023/05/18 08:16:49;;;;;;;7.50;1.70;;;12.40;99.90;;;;;;5071869;28;20070;-86
2023/05/18 08:19:16;;;;;;;9.00;1.88;;;12.50;99.90;;;;;;5056034;28;20045;-86
2023/05/18 08:21:45;;;;;;;7.00;1.75;;;12.60;99.90;;;;;;5077859;28;20489;-86
2023/05/18 08:24:11;;;;;;;7.32;1.55;;;12.70;99.90;;;;;;5055591;28;20080;-86
2023/05/18 08:26:38;;;;;;;4.38;1.70;;;12.80;99.90;;;;;;5079620;28;20528;-86
2023/05/18 08:29:08;;;;;;;5.70;1.67;;;12.90;99.90;;;;;;5058830;28;20036;-86
2023/05/18 08:31:39;;;;;;;5.53;1.30;;;13.00;99.90;;;;;;5075986;28;20040;-86
2023/05/18 08:34:07;;;;;;;4.40;1.30;;;12.90;99.90;;;;;;5075610;28;20043;-85
2023/05/18 08:36:35;;;;;;;5.35;1.30;;;13.00;99.90;;;;;;5075536;28;20055;-86
2023/05/18 08:39:03;;;;;;;7.80;1.83;;;13.10;99.90;;;;;;5059166;28;20079;-86
2023/05/18 08:41:39;;;;;;;5.22;1.70;;;13.10;99.90;;;;;;5091779;28;20044;-85
2023/05/18 08:44:13;;;;;;;7.22;1.63;;;13.10;99.90;;;;;;5092249;28;20087;-86
2023/05/18 08:46:41;;;;;;;4.97;1.55;;;13.10;99.90;;;;;;5091948;28;20042;-86
2023/05/18 08:49:09;;;;;;;7.03;2.05;;;13.10;99.90;;;;;;5092622;28;20075;-86
2023/05/18 08:51:36;;;;;;;6.28;1.55;;;13.10;99.90;;;;;;5058436;28;20052;-86
2023/05/18 08:54:04;;;;;;;7.40;1.77;;;13.10;99.90;;;;;;5091975;28;20045;-86
2023/05/18 08:56:33;;;;;;;5.13;1.30;;;13.00;99.90;;;;;;5091229;28;20070;-85
2023/05/18 08:59:06;;;;;;;7.47;1.90;;;13.00;99.90;;;;;;5091714;28;20044;-86
2023/05/18 09:01:33;;;;;;;8.45;1.52;;;12.70;99.90;;;;;;5091427;28;20054;-86
2023/05/18 09:04:01;;;;;;;7.35;1.50;;;12.70;99.90;;;;;;5063289;28;20037;-86
2023/05/18 09:06:27;;;;;;;5.85;1.40;;;12.70;99.90;;;;;;5079017;28;20040;-87
2023/05/18 09:09:03;;;;;;;8.00;1.55;;;12.90;99.90;;;;;;5071653;28;20511;-89
2023/05/18 09:11:32;;;;;;;8.13;1.58;;;13.00;99.90;;;;;;5071889;28;20040;-88
2023/05/18 09:13:59;;;;;;;7.32;1.92;;;13.10;99.90;;;;;;5088650;28;20055;-86
2023/05/18 09:16:26;;;;;;;6.97;1.70;;;13.20;99.90;;;;;;5054582;28;20481;-86
2023/05/18 09:18:53;;;;;;;5.63;1.48;;;13.20;99.90;;;;;;5054560;28;20052;-82
2023/05/18 09:21:20;;;;;;;3.72;1.40;;;13.10;99.90;;;;;;5070276;28;20490;-83
2023/05/18 09:23:47;;;;;;;5.90;1.48;;;13.00;99.90;;;;;;5070020;28;20048;-84
2023/05/18 09:26:13;;;;;;;5.15;1.40;;;12.90;99.90;;;;;;5070510;28;20041;-85
2023/05/18 09:28:42;;;;;;;5.32;1.40;;;12.80;99.90;;;;;;5053953;28;20052;-86
2023/05/18 09:31:19;;;;;;;6.05;1.77;;;12.80;99.90;;;;;;5070653;28;20036;-85
2023/05/18 09:33:47;;;;;;;6.53;1.70;;;12.90;99.90;;;;;;5053832;28;20036;-85
2023/05/18 09:36:14;;;;;;;7.63;1.98;;;12.90;99.90;;;;;;5053998;28;20047;-85
2023/05/18 09:38:44;;;;;;;7.47;1.95;;;12.80;99.90;;;;;;5054199;28;20091;-86
2023/05/18 09:41:16;;;;;;;6.60;2.15;;;12.90;99.90;;;;;;5059259;28;20212;-85
2023/05/18 09:43:50;;;;;;;5.75;1.90;;;12.90;99.90;;;;;;5056475;28;20117;-86
2023/05/18 09:46:17;;;;;;;5.95;2.33;;;12.90;99.90;;;;;;5073423;28;20404;-87
2023/05/18 09:48:53;;;;;;;5.30;1.65;;;12.90;99.90;;;;;;5095197;28;20055;-86
2023/05/18 09:51:23;;;;;;;5.10;1.50;;;13.20;99.90;;;;;;5094412;28;20053;-85
2023/05/18 09:53:55;;;;;;;3.65;1.33;;;13.50;99.90;;;;;;5080454;28;20044;-85
2023/05/18 09:56:23;;;;;;;6.13;1.70;;;13.70;99.90;;;;;;5067269;28;20043;-85
2023/05/18 09:58:50;;;;;;;5.00;1.55;;;13.80;99.90;;;;;;5075895;28;20036;-85
2023/05/18 10:01:17;;;;;;;5.03;1.50;;;13.60;99.90;;;;;;5090366;28;20040;-85
2023/05/18 10:03:47;;;;;;;5.47;1.50;;;13.60;99.90;;;;;;5090133;28;20102;-85
2023/05/18 10:06:13;;;;;;;9.27;1.52;;;13.70;99.90;;;;;;5074377;28;20098;-85
2023/05/18 10:08:40;;;;;;;6.13;1.77;;;13.90;99.90;;;;;;5057270;28;20041;-85
2023/05/18 10:11:08;;;;;;;6.78;1.70;;;14.20;99.90;;;;;;5053789;28;20095;-85
2023/05/18 10:13:34;;;;;;;9.20;2.13;;;14.40;99.90;;;;;;5053729;28;20032;-84
2023/05/18 10:16:06;;;;;;;5.07;1.60;;;14.70;99.90;;;;;;5036552;28;20037;-85
2023/05/18 10:18:37;;;;;;;6.97;1.55;;;14.90;99.90;;;;;;5082050;28;20411;-85
2023/05/18 10:21:08;;;;;;;9.05;2.05;;;15.00;99.90;;;;;;5057428;28;20040;-85
2023/05/18 10:23:36;;;;;;;7.65;1.83;;;15.20;99.90;;;;;;5090637;28;20041;-85
2023/05/18 10:26:08;;;;;;;5.65;1.70;;;15.40;99.90;;;;;;5090363;28;20113;-85
2023/05/18 10:28:46;;;;;;;7.28;1.83;;;15.40;99.90;;;;;;5064297;28;20051;-88
2023/05/18 10:31:15;;;;;;;5.35;1.73;;;15.60;99.90;;;;;;5070130;28;20527;-85
2023/05/18 10:33:43;;;;;;;6.47;1.65;;;15.80;99.90;;;;;;5070064;28;20507;-85
2023/05/18 10:36:10;;;;;;;6.00;1.73;;;15.70;99.90;;;;;;5086968;28;20144;-86
2023/05/18 10:38:38;;;;;;;6.35;1.50;;;15.80;99.90;;;;;;5071519;28;20055;-86
2023/05/18 10:41:06;;;;;;;6.03;1.45;;;15.90;99.90;;;;;;5054596;28;20127;-85
2023/05/18 10:43:35;;;;;;;5.97;1.80;;;16.00;99.40;;;;;;5087558;28;20041;-86
2023/05/18 10:46:04;;;;;;;7.63;2.08;;;15.60;99.30;;;;;;5056965;28;20044;-86
2023/05/18 10:48:30;;;;;;;4.03;1.30;;;15.20;99.10;;;;;;5058019;28;20049;-86
2023/05/18 10:50:57;;;;;;;5.43;1.73;;;15.20;99.70;;;;;;5060004;28;20062;-85
2023/05/18 10:53:30;;;;;;;10.07;2.20;;;15.40;99.50;;;;;;5061489;28;20435;-86
2023/05/18 10:55:57;;;;;;;8.35;1.77;;;15.60;99.10;;;;;;5094881;28;20044;-86
2023/05/18 10:58:26;;;;;;;5.63;1.58;;;15.60;99.40;;;;;;5077928;28;20423;-86
2023/05/18 11:00:58;;;;;;;4.82;1.40;;;15.50;99.30;;;;;;5076250;28;20497;-86
2023/05/18 11:03:26;;;;;;;7.63;1.95;;;15.30;99.40;;;;;;5090370;28;20037;-86
2023/05/18 11:06:05;;;;;;;10.27;1.67;;;15.10;99.60;;;;;;5056980;28;20036;-86
2023/05/18 11:08:32;;;;;;;5.60;1.35;;;14.80;99.30;;;;;;5073745;28;20051;-86
2023/05/18 11:11:06;;;;;;;5.60;1.67;;;15.00;99.90;;;;;;5073714;28;20076;-86
2023/05/18 11:13:42;;;;;;;4.30;1.73;;;14.90;99.90;;;;;;5074001;28;20071;-85
2023/05/18 11:16:08;;;;;;;9.23;2.08;;;14.90;99.60;;;;;;5073912;28;20119;-85
2023/05/18 11:18:50;;;;;;;4.65;1.52;;;14.70;99.90;;;;;;5057666;28;20080;-85
2023/05/18 11:21:19;;;;;;;4.68;1.50;;;14.90;99.90;;;;;;5093252;28;20041;-85
2023/05/18 11:24:23;;;;;;;8.70;1.90;;;15.00;99.90;;;;;;5089850;28;20035;-85
2023/05/18 11:26:52;;;;;;;6.82;1.70;;;15.20;99.10;;;;;;5093617;28;20080;-85
2023/05/18 11:29:23;;;;;;;7.20;1.90;;;15.40;99.70;;;;;;5077380;28;20041;-83
2023/05/18 11:31:54;;;;;;;4.78;1.92;;;15.50;99.40;;;;;;5092803;28;20091;-83
2023/05/18 11:34:45;;;;;;;5.97;1.70;;;15.60;98.70;;;;;;5040822;28;20080;-86
2023/05/18 11:37:13;;;;;;;8.88;1.92;;;15.80;98.50;;;;;;5074167;28;20069;-86
2023/05/18 11:39:41;;;;;;;6.90;1.90;;;15.80;98.80;;;;;;5057483;28;20041;-83
2023/05/18 11:42:09;;;;;;;7.20;2.00;;;15.90;99.50;;;;;;5073982;28;20790;-86
2023/05/18 11:44:38;;;;;;;5.15;1.83;;;16.00;99.60;;;;;;5072870;28;20076;-83
2023/05/18 11:47:10;;;;;;;9.85;2.00;;;16.00;99.30;;;;;;5056263;28;20048;-83
2023/05/18 11:49:46;;;;;;;7.93;1.67;;;15.90;98.00;;;;;;5089056;28;20041;-83
2023/05/18 11:52:15;;;;;;;7.50;1.95;;;15.50;98.90;;;;;;5072748;28;20041;-83
2023/05/18 11:54:45;;;;;;;5.97;1.90;;;15.50;99.40;;;;;;5072417;28;20052;-83
2023/05/18 11:57:14;;;;;;;6.15;1.90;;;15.50;99.40;;;;;;5089104;28;20796;-81
2023/05/18 11:59:42;;;;;;;8.32;1.77;;;15.60;99.30;;;;;;5072569;28;20045;-83
2023/05/18 12:02:11;;;;;;;6.22;2.03;;;15.70;99.60;;;;;;5072356;28;20581;-85
2023/05/18 12:04:46;;;;;;;8.45;2.53;;;15.70;99.60;;;;;;5072117;28;20102;-83
2023/05/18 12:07:13;;;;;;;6.80;1.90;;;15.80;99.30;;;;;;5072373;28;20555;-83
2023/05/18 12:09:41;;;;;;;7.53;2.20;;;15.60;99.50;;;;;;5055387;28;20469;-82
2023/05/18 12:12:10;;;;;;;5.43;2.25;;;15.30;99.70;;;;;;5055529;28;20520;-83
2023/05/18 12:14:39;;;;;;;5.40;2.00;;;15.10;99.80;;;;;;5055680;28;20047;-80
2023/05/18 12:17:06;;;;;;;6.15;2.00;;;15.20;99.80;;;;;;5056290;28;20037;-81
2023/05/18 12:19:41;;;;;;;4.45;2.00;;;15.40;99.90;;;;;;5072165;28;20098;-82
2023/05/18 12:22:08;;;;;;;5.85;1.83;;;15.60;99.90;;;;;;5055231;28;20696;-82
2023/05/18 12:24:39;;;;;;;6.93;2.00;;;15.40;99.90;;;;;;5056048;28;20402;-82
2023/05/18 12:27:08;;;;;;;6.97;2.03;;;15.40;99.90;;;;;;5071527;28;20440;-82
2023/05/18 12:29:39;;;;;;;5.38;2.10;;;15.40;99.90;;;;;;5055409;28;20037;-82
2023/05/18 12:32:09;;;;;;;7.50;1.80;;;15.50;99.90;;;;;;5088169;28;20045;-82
2023/05/18 12:34:36;;;;;;;9.30;2.20;;;15.60;99.90;;;;;;5073696;28;20033;-82
2023/05/18 12:37:05;;;;;;;9.70;2.00;;;15.70;99.90;;;;;;5058813;28;20036;-82
2023/05/18 12:39:32;;;;;;;7.65;2.10;;;15.90;99.90;;;;;;5091739;28;20056;-83
2023/05/18 12:42:10;;;;;;;12.27;2.17;;;16.00;99.90;;;;;;5074938;28;20170;-82
2023/05/18 12:44:37;;;;;;;7.60;2.00;;;16.00;99.90;;;;;;5041978;28;20091;-82
2023/05/18 12:47:04;;;;;;;7.63;2.20;;;15.90;99.90;;;;;;5054976;28;20041;-83
2023/05/18 12:49:38;;;;;;;9.52;2.50;;;15.90;99.90;;;;;;5054702;28;20374;-82
2023/05/18 12:52:14;;;;;;;5.53;2.07;;;15.90;99.90;;;;;;5054087;28;20049;-82
2023/05/18 12:54:57;;;;;;;6.40;1.85;;;15.90;99.90;;;;;;5085242;28;20286;-83
2023/05/18 12:57:25;;;;;;;7.07;2.00;;;15.90;99.90;;;;;;5091058;28;20115;-82
2023/05/18 12:59:53;;;;;;;8.07;1.90;;;15.80;99.90;;;;;;5091057;28;20511;-83